Time;durP1;ratioP1;P1;durP2;ratioP2;P2;SDS_P1;SDS_P2;PMS_P1;PMS_P2;Temp;Humidity;BMP_temperature;BMP_pressure;BME280_temperature;BME280_humidity;BME280_pressure;Samples;Min_cycle;Max_cycle;Signal;HPM_P1;HPM_P2
2021/06/07 00:00:51;;;;;;;11.80;6.70;;;;;;;14.74;100.00;97040.28;4983610;28;20062;-60
2021/06/07 00:03:17;;;;;;;13.23;6.75;;;;;;;14.75;100.00;97041.06;4979240;28;20061;-59
2021/06/07 00:05:42;;;;;;;10.90;6.18;;;;;;;14.78;100.00;97035.56;4982705;28;20395;-60
2021/06/07 00:08:08;;;;;;;11.68;6.28;;;;;;;14.70;100.00;97043.03;4958698;28;20046;-60
2021/06/07 00:10:34;;;;;;;14.48;6.40;;;;;;;14.75;100.00;97038.31;4983374;28;20042;-62
2021/06/07 00:13:00;;;;;;;14.40;7.18;;;;;;;14.76;100.00;97039.91;4977810;28;20515;-63
2021/06/07 00:15:29;;;;;;;12.23;6.18;;;;;;;14.71;100.00;97033.59;4959550;28;20053;-61
2021/06/07 00:17:54;;;;;;;11.05;6.05;;;;;;;14.72;100.00;97034.38;4963568;28;20122;-61
2021/06/07 00:20:47;;;;;;;11.30;5.63;;;;;;;14.70;100.00;97033.97;4958427;28;20038;-62
2021/06/07 00:23:13;;;;;;;12.98;6.78;;;;;;;14.77;100.00;97038.75;4956180;28;20042;-61
2021/06/07 00:25:39;;;;;;;9.98;5.20;;;;;;;14.79;100.00;97041.91;4984374;28;20113;-62
2021/06/07 00:28:06;;;;;;;10.43;5.47;;;;;;;14.77;100.00;97039.53;4979060;28;20043;-63
2021/06/07 00:30:33;;;;;;;11.20;5.65;;;;;;;14.78;100.00;97032.03;4987029;28;20403;-63
2021/06/07 00:32:59;;;;;;;11.80;6.20;;;;;;;14.77;100.00;97031.25;4987144;28;20053;-63
2021/06/07 00:35:26;;;;;;;10.63;5.28;;;;;;;14.74;100.00;97034.00;4980624;28;20050;-62
2021/06/07 00:37:52;;;;;;;11.15;6.18;;;;;;;14.77;100.00;97030.47;4983716;28;20206;-60
2021/06/07 00:40:19;;;;;;;11.15;5.93;;;;;;;14.72;100.00;97031.63;4957595;28;20046;-62
2021/06/07 00:42:45;;;;;;;9.55;5.30;;;;;;;14.74;100.00;97034.00;4983008;28;20564;-63
2021/06/07 00:45:17;;;;;;;8.63;5.07;;;;;;;14.66;100.00;97036.72;4978372;28;20416;-61
2021/06/07 00:47:43;;;;;;;10.27;5.68;;;;;;;14.64;100.00;97025.28;4982266;28;20389;-62
2021/06/07 00:50:12;;;;;;;10.32;5.22;;;;;;;14.62;100.00;97024.06;4977342;28;20049;-62
2021/06/07 00:52:59;;;;;;;9.03;4.33;;;;;;;14.61;100.00;97028.03;4982942;28;20050;-62
2021/06/07 00:55:25;;;;;;;10.10;5.25;;;;;;;14.64;100.00;97024.47;4996065;28;20828;-62
2021/06/07 00:57:53;;;;;;;12.18;6.32;;;;;;;14.64;100.00;97028.03;5000630;28;20515;-62
2021/06/07 01:00:19;;;;;;;12.15;6.55;;;;;;;14.63;100.00;97020.16;4997829;28;20049;-63
2021/06/07 01:02:44;;;;;;;9.93;5.50;;;;;;;14.66;100.00;97022.94;4985997;28;20045;-64
2021/06/07 01:05:11;;;;;;;13.63;7.70;;;;;;;14.64;100.00;97022.53;4976871;28;20046;-65
2021/06/07 01:07:37;;;;;;;13.48;7.28;;;;;;;14.59;100.00;97025.66;4985257;28;20054;-63
2021/06/07 01:10:03;;;;;;;13.27;7.45;;;;;;;14.54;100.00;97021.25;4978511;28;20031;-64
2021/06/07 01:12:29;;;;;;;12.88;7.15;;;;;;;14.50;100.00;97022.41;4982136;28;20046;-64
2021/06/07 01:14:54;;;;;;;12.10;6.70;;;;;;;14.47;100.00;97012.94;4982522;28;20500;-62
2021/06/07 01:17:19;;;;;;;16.10;7.10;;;;;;;14.49;100.00;97005.06;4976584;28;20376;-63
2021/06/07 01:19:45;;;;;;;16.92;8.80;;;;;;;14.58;100.00;97013.03;4982281;28;20141;-61
2021/06/07 01:22:10;;;;;;;17.45;9.02;;;;;;;14.59;100.00;97011.88;4977330;28;20089;-62
2021/06/07 01:24:36;;;;;;;15.60;9.15;;;;;;;14.59;100.00;97013.84;4982110;28;20121;-62
2021/06/07 01:27:02;;;;;;;18.15;9.88;;;;;;;14.59;100.00;97011.88;4982852;28;20038;-62
2021/06/07 01:29:27;;;;;;;21.00;10.27;;;;;;;14.59;100.00;97011.88;4977995;28;20038;-61
2021/06/07 01:31:53;;;;;;;22.15;11.48;;;;;;;14.61;100.00;97008.72;4982703;28;20034;-61
2021/06/07 01:34:18;;;;;;;21.58;11.75;;;;;;;14.66;100.00;97005.59;4977149;28;20038;-64
2021/06/07 01:36:44;;;;;;;24.92;14.52;;;;;;;14.64;100.00;97003.22;4991846;28;20074;-65
2021/06/07 01:39:09;;;;;;;26.08;14.35;;;;;;;14.61;100.00;97006.75;4991687;28;20110;-65
2021/06/07 01:41:35;;;;;;;27.17;14.43;;;;;;;14.50;100.00;97000.38;4983130;28;20138;-64
2021/06/07 01:44:00;;;;;;;28.17;14.30;;;;;;;14.54;100.00;97001.16;4964609;28;20046;-63
2021/06/07 01:46:25;;;;;;;24.08;13.55;;;;;;;14.49;100.00;97004.28;4975834;28;20144;-63
2021/06/07 01:48:51;;;;;;;24.95;14.68;;;;;;;14.48;100.00;96988.94;4981749;28;20046;-64
2021/06/07 01:51:16;;;;;;;28.48;15.35;;;;;;;14.51;100.00;96993.66;4976755;28;20046;-64
2021/06/07 01:53:43;;;;;;;36.28;19.23;;;;;;;14.45;100.00;96992.47;4981254;28;20045;-64
2021/06/07 01:56:09;;;;;;;35.05;18.60;;;;;;;14.41;100.00;96997.16;4976766;28;20108;-64
2021/06/07 01:58:36;;;;;;;32.92;17.08;;;;;;;14.37;100.00;96986.13;4990743;28;20499;-64
2021/06/07 02:01:14;;;;;;;36.05;20.35;;;;;;;14.36;100.00;96995.56;4989281;28;20050;-61
2021/06/07 02:03:40;;;;;;;37.17;18.50;;;;;;;14.37;100.00;96990.81;4982183;28;20041;-64
2021/06/07 02:06:07;;;;;;;36.33;19.65;;;;;;;14.44;100.00;96988.09;4968960;28;20038;-65
2021/06/07 02:08:33;;;;;;;35.95;19.08;;;;;;;14.51;100.00;96988.16;4982181;28;20494;-64
2021/06/07 02:11:12;;;;;;;36.30;18.67;;;;;;;14.57;100.00;96989.38;4981478;28;20141;-65
2021/06/07 02:13:39;;;;;;;32.95;18.20;;;;;;;14.67;100.00;96982.38;4981111;28;20054;-65
2021/06/07 02:16:14;;;;;;;34.05;19.13;;;;;;;14.77;100.00;96978.88;4977976;28;20483;-62
2021/06/07 02:18:40;;;;;;;29.27;17.88;;;;;;;14.72;100.00;96979.25;4982265;28;20042;-65
2021/06/07 02:21:07;;;;;;;34.85;19.88;;;;;;;14.80;100.00;96978.09;4976191;28;20049;-65
2021/06/07 02:23:34;;;;;;;31.05;17.38;;;;;;;14.76;100.00;96984.78;4979646;28;20109;-63
2021/06/07 02:25:59;;;;;;;29.58;17.20;;;;;;;14.78;100.00;96988.69;4997739;28;20042;-64
2021/06/07 02:28:25;;;;;;;33.35;18.02;;;;;;;14.86;100.00;96979.28;4995312;28;20539;-63
2021/06/07 02:30:51;;;;;;;31.63;17.10;;;;;;;14.86;100.00;96984.81;4973628;28;20125;-63
2021/06/07 02:33:17;;;;;;;31.23;17.13;;;;;;;14.84;100.00;96976.16;4979703;28;20045;-63
2021/06/07 02:35:43;;;;;;;27.90;16.52;;;;;;;14.78;100.00;96980.44;4986172;28;20134;-64
2021/06/07 02:38:10;;;;;;;32.47;17.63;;;;;;;14.79;100.00;96984.78;4993093;28;20049;-63
2021/06/07 02:40:37;;;;;;;31.58;16.42;;;;;;;14.83;100.00;96982.81;4975911;28;20105;-62
2021/06/07 02:43:05;;;;;;;28.48;16.10;;;;;;;14.86;100.00;96987.56;4976772;28;20073;-63
2021/06/07 02:45:31;;;;;;;27.95;16.08;;;;;;;14.90;100.00;96991.13;4980030;28;20052;-64
2021/06/07 02:47:58;;;;;;;27.33;15.15;;;;;;;14.95;100.00;96983.69;4980249;28;20074;-63
2021/06/07 02:50:30;;;;;;;28.33;16.25;;;;;;;14.87;100.00;96986.41;4974670;28;20571;-62
2021/06/07 02:52:56;;;;;;;29.15;15.90;;;;;;;14.89;100.00;96991.50;4979302;28;20433;-63
2021/06/07 02:55:25;;;;;;;27.25;15.93;;;;;;;14.84;100.00;96978.91;4978162;28;20190;-64
2021/06/07 02:57:52;;;;;;;28.27;15.23;;;;;;;14.78;100.00;96977.69;4974042;28;20042;-63
2021/06/07 03:00:29;;;;;;;25.73;15.63;;;;;;;14.81;100.00;96978.88;4968424;28;20050;-63
2021/06/07 03:02:56;;;;;;;28.90;15.38;;;;;;;14.84;100.00;96984.41;4991710;28;20121;-62
2021/06/07 03:05:21;;;;;;;29.92;16.05;;;;;;;14.86;100.00;96984.81;4995187;28;20060;-65
2021/06/07 03:07:47;;;;;;;26.20;16.13;;;;;;;14.94;100.00;96979.31;4978659;28;20062;-64
2021/06/07 03:10:13;;;;;;;28.70;16.35;;;;;;;14.83;100.00;96987.56;4972097;28;20511;-64
2021/06/07 03:12:39;;;;;;;27.25;15.90;;;;;;;14.75;100.00;96985.94;4977020;28;20042;-63
2021/06/07 03:15:06;;;;;;;27.73;15.45;;;;;;;14.69;100.00;96985.50;4975070;28;20089;-62
2021/06/07 03:17:32;;;;;;;24.98;14.88;;;;;;;14.72;100.00;96984.75;4980669;28;20039;-64
2021/06/07 03:19:57;;;;;;;27.48;15.82;;;;;;;14.77;100.00;96980.84;4978425;28;20054;-65
2021/06/07 03:22:23;;;;;;;30.75;15.38;;;;;;;14.85;100.00;96977.72;4974091;28;20052;-64
2021/06/07 03:24:50;;;;;;;29.02;15.50;;;;;;;14.77;100.00;96967.84;4981272;28;20527;-64
2021/06/07 03:27:16;;;;;;;25.80;15.05;;;;;;;14.78;100.00;96963.09;4970912;28;20050;-64
2021/06/07 03:29:42;;;;;;;26.67;14.98;;;;;;;14.84;100.00;96967.09;4980059;28;20050;-64
2021/06/07 03:32:08;;;;;;;29.27;15.27;;;;;;;14.79;100.00;96971.00;4974979;28;20097;-63
2021/06/07 03:34:33;;;;;;;24.65;14.50;;;;;;;14.87;100.00;96966.28;4980646;28;20588;-63
2021/06/07 03:36:59;;;;;;;25.10;14.27;;;;;;;14.87;100.00;96974.56;4981336;28;20117;-64
2021/06/07 03:39:24;;;;;;;23.95;13.70;;;;;;;14.67;100.00;96980.38;4973227;28;20057;-64
2021/06/07 03:41:50;;;;;;;26.58;14.80;;;;;;;14.66;100.00;96978.81;4979847;28;20069;-63
2021/06/07 03:44:16;;;;;;;26.60;14.85;;;;;;;14.71;100.00;96980.41;4958054;28;20061;-64
2021/06/07 03:46:41;;;;;;;24.17;14.52;;;;;;;14.74;100.00;96973.34;4977860;28;20782;-63
2021/06/07 03:49:07;;;;;;;25.58;13.38;;;;;;;14.74;100.00;96981.63;4975271;28;20499;-64
2021/06/07 03:51:33;;;;;;;25.58;13.85;;;;;;;14.77;100.00;96970.59;4997219;28;20133;-64
2021/06/07 03:53:59;;;;;;;23.17;13.32;;;;;;;14.77;100.00;96972.56;4988182;28;20042;-64
2021/06/07 03:56:25;;;;;;;22.13;12.90;;;;;;;14.81;100.00;96976.13;4974289;28;20614;-64
2021/06/07 03:58:50;;;;;;;23.05;11.88;;;;;;;14.91;100.00;96978.94;4976929;28;20057;-64
2021/06/07 04:01:15;;;;;;;16.73;9.80;;;;;;;14.90;100.00;96980.09;4974226;28;20621;-64
2021/06/07 04:03:41;;;;;;;16.02;9.27;;;;;;;14.97;100.00;96978.56;4986845;28;20042;-63
2021/06/07 04:06:06;;;;;;;14.35;8.57;;;;;;;14.97;100.00;96970.28;4957790;28;20049;-64
2021/06/07 04:08:31;;;;;;;15.15;8.80;;;;;;;14.97;100.00;96981.31;4978456;28;20424;-64
2021/06/07 04:10:57;;;;;;;13.63;8.25;;;;;;;15.02;100.00;96972.66;4979381;28;20046;-63
2021/06/07 04:13:22;;;;;;;13.52;8.27;;;;;;;15.10;100.00;96986.06;4972573;28;20050;-63
2021/06/07 04:15:48;;;;;;;17.48;7.75;;;;;;;15.07;100.00;96980.53;4977404;28;20113;-63
2021/06/07 04:18:13;;;;;;;14.20;8.45;;;;;;;15.09;100.00;96978.22;4974276;28;20510;-63
2021/06/07 04:20:39;;;;;;;14.65;8.50;;;;;;;15.07;100.00;96984.09;4968122;28;20062;-63
2021/06/07 04:23:04;;;;;;;13.63;8.30;;;;;;;15.21;100.00;96986.09;4981106;28;20520;-63
2021/06/07 04:25:30;;;;;;;12.10;7.88;;;;;;;15.17;100.00;96974.28;4981469;28;20082;-63
2021/06/07 04:27:57;;;;;;;13.52;8.98;;;;;;;15.23;100.00;96981.00;4982285;28;20046;-65
2021/06/07 04:30:23;;;;;;;13.13;8.48;;;;;;;15.31;100.00;96981.81;4974174;28;20254;-65
2021/06/07 04:32:50;;;;;;;13.43;8.05;;;;;;;15.29;100.00;96978.66;4981304;28;20510;-65
2021/06/07 04:35:17;;;;;;;13.73;8.15;;;;;;;15.36;100.00;96986.13;4981523;28;20042;-64
2021/06/07 04:37:50;;;;;;;11.73;7.70;;;;;;;15.41;100.00;96983.00;4985257;28;20492;-65
2021/06/07 04:40:17;;;;;;;11.93;8.23;;;;;;;15.29;100.00;96987.72;4975189;28;20455;-63
2021/06/07 04:42:42;;;;;;;13.95;7.88;;;;;;;15.20;100.00;96992.03;4980107;28;20400;-64
2021/06/07 04:45:10;;;;;;;12.32;8.80;;;;;;;15.16;100.00;96989.25;4960506;28;20038;-64
2021/06/07 04:47:36;;;;;;;13.82;8.60;;;;;;;14.90;100.00;96987.59;4980841;28;20042;-64
2021/06/07 04:50:06;;;;;;;14.00;9.15;;;;;;;14.85;100.00;96990.72;4982389;28;20052;-64
2021/06/07 04:52:31;;;;;;;;;;;;;;;14.83;100.00;97004.88;4979083;28;20046;-64
2021/06/07 04:54:56;;;;;;;15.93;9.90;;;;;;;14.80;100.00;96999.34;4959634;28;20034;-62
2021/06/07 04:57:22;;;;;;;18.40;10.27;;;;;;;14.73;100.00;97000.13;4976166;28;20244;-63
2021/06/07 04:59:47;;;;;;;14.60;9.45;;;;;;;14.81;100.00;97000.94;4981465;28;20053;-63
2021/06/07 05:02:13;;;;;;;16.60;10.45;;;;;;;14.76;100.00;97001.31;4975943;28;20046;-62
2021/06/07 05:04:38;;;;;;;17.70;10.40;;;;;;;14.56;100.00;96998.81;4981250;28;20038;-62
2021/06/07 05:07:04;;;;;;;22.17;11.90;;;;;;;14.54;100.00;96995.66;4978633;28;20408;-62
2021/06/07 05:09:29;;;;;;;17.60;10.70;;;;;;;14.53;100.00;97005.09;4964428;28;20066;-62
2021/06/07 05:11:54;;;;;;;16.63;9.70;;;;;;;14.42;100.00;97004.25;4981371;28;20132;-63
2021/06/07 05:14:20;;;;;;;20.60;8.98;;;;;;;14.47;100.00;97009.41;4976429;28;20113;-63
2021/06/07 05:16:45;;;;;;;13.70;7.72;;;;;;;14.33;100.00;97007.34;4981407;28;20640;-61
2021/06/07 05:19:11;;;;;;;14.15;7.43;;;;;;;14.33;100.00;97004.59;4968617;28;20050;-62
2021/06/07 05:21:36;;;;;;;13.85;8.73;;;;;;;14.30;100.00;97006.16;4978554;28;20097;-63
2021/06/07 05:24:02;;;;;;;13.32;7.75;;;;;;;14.35;100.00;97005.00;4977659;28;20057;-63
2021/06/07 05:26:27;;;;;;;20.63;8.65;;;;;;;14.39;100.00;97005.81;4979682;28;20515;-63
2021/06/07 05:28:53;;;;;;;12.07;7.43;;;;;;;14.47;100.00;97020.41;4985303;28;20475;-63
2021/06/07 05:31:18;;;;;;;13.05;7.95;;;;;;;14.58;100.00;97012.25;4979679;28;20137;-63
2021/06/07 05:33:44;;;;;;;14.55;7.80;;;;;;;14.57;100.00;97016.94;4966780;28;20038;-63
2021/06/07 05:36:09;;;;;;;12.00;6.80;;;;;;;14.58;100.00;97012.25;4963259;28;20097;-65
2021/06/07 05:38:35;;;;;;;9.95;6.68;;;;;;;14.79;100.00;97012.34;4981747;28;20057;-63
2021/06/07 05:41:00;;;;;;;9.27;5.05;;;;;;;14.74;100.00;97014.69;4982389;28;20034;-63
2021/06/07 05:43:25;;;;;;;8.57;5.40;;;;;;;14.81;100.00;97015.50;4973414;28;20137;-63
2021/06/07 05:45:52;;;;;;;8.00;5.20;;;;;;;14.84;100.00;97009.22;4982315;28;20491;-63
2021/06/07 05:48:19;;;;;;;8.15;4.65;;;;;;;14.85;100.00;97012.78;4957732;28;20050;-63
2021/06/07 05:50:45;;;;;;;7.65;4.70;;;;;;;14.86;100.00;97011.59;4982254;28;20054;-63
2021/06/07 05:53:14;;;;;;;7.15;4.38;;;;;;;15.02;100.00;97006.53;4977333;28;20121;-63
2021/06/07 05:55:42;;;;;;;12.30;7.28;;;;;;;15.07;100.00;97013.66;4978893;28;20042;-63
2021/06/07 05:58:11;;;;;;;6.65;4.45;;;;;;;15.11;100.00;97008.94;4956272;28;20124;-64
2021/06/07 06:00:39;;;;;;;6.20;3.83;;;;;;;15.28;100.00;97010.16;4979677;28;20522;-60
2021/06/07 06:03:05;;;;;;;8.00;4.93;;;;;;;15.49;100.00;97006.69;4986567;28;20046;-62
2021/06/07 06:05:30;;;;;;;7.45;4.75;;;;;;;15.79;100.00;97008.31;4995103;28;20100;-62
2021/06/07 06:07:56;;;;;;;5.38;4.00;;;;;;;16.08;100.00;97022.13;4988787;28;20053;-62
2021/06/07 06:10:21;;;;;;;5.20;3.40;;;;;;;16.12;98.46;97022.94;4976297;28;21129;-62
2021/06/07 06:12:48;;;;;;;10.48;2.90;;;;;;;16.27;97.83;97026.47;4978282;28;20069;-61
2021/06/07 06:15:16;;;;;;;6.20;3.20;;;;;;;16.32;96.54;97026.09;4973728;28;20042;-61
2021/06/07 06:17:42;;;;;;;6.50;3.75;;;;;;;16.01;97.85;97025.69;4981155;28;20432;-63
2021/06/07 06:20:08;;;;;;;5.18;3.15;;;;;;;15.85;99.31;97023.31;4976608;28;20041;-62
2021/06/07 06:22:35;;;;;;;7.20;4.30;;;;;;;15.64;100.00;97019.31;4980378;28;20039;-63
2021/06/07 06:25:00;;;;;;;7.53;4.55;;;;;;;15.72;100.00;97027.59;4981531;28;20470;-64
2021/06/07 06:27:26;;;;;;;10.27;5.53;;;;;;;15.64;100.00;97027.59;4975979;28;20070;-64
2021/06/07 06:29:52;;;;;;;10.77;6.35;;;;;;;15.64;100.00;97035.88;4980555;28;20787;-63
2021/06/07 06:32:17;;;;;;;7.60;5.30;;;;;;;15.65;100.00;97022.88;4975992;28;20478;-63
2021/06/07 06:34:43;;;;;;;7.20;4.72;;;;;;;15.86;100.00;97033.16;4980616;28;20427;-63
2021/06/07 06:37:09;;;;;;;5.75;4.55;;;;;;;15.96;98.39;97035.16;4974801;28;20061;-63
2021/06/07 06:39:35;;;;;;;8.65;5.32;;;;;;;15.70;100.00;97032.72;4980808;28;20051;-63
2021/06/07 06:42:04;;;;;;;6.07;3.88;;;;;;;16.01;99.31;97040.28;4979414;28;20042;-64
2021/06/07 06:44:29;;;;;;;3.88;2.70;;;;;;;16.20;98.25;97054.91;4977828;28;20511;-64
2021/06/07 06:46:55;;;;;;;3.13;1.92;;;;;;;16.05;95.99;97045.81;4975139;28;20077;-63
2021/06/07 06:49:20;;;;;;;2.53;1.70;;;;;;;15.95;96.13;97052.13;4956255;28;20065;-63
2021/06/07 06:51:46;;;;;;;2.90;1.65;;;;;;;15.94;96.00;97053.31;4973823;28;20133;-64
2021/06/07 06:54:11;;;;;;;2.58;1.42;;;;;;;15.73;95.65;97062.34;4975019;28;20046;-63
2021/06/07 06:56:37;;;;;;;2.50;1.48;;;;;;;15.47;96.42;97059.50;4981112;28;20078;-63
2021/06/07 06:59:03;;;;;;;6.57;2.80;;;;;;;15.43;97.77;97055.16;4978934;28;20097;-62
2021/06/07 07:01:30;;;;;;;3.28;1.40;;;;;;;15.44;97.37;97056.75;4976957;28;20049;-64
2021/06/07 07:03:55;;;;;;;3.63;1.90;;;;;;;15.43;97.57;97055.97;4980850;28;20073;-62
2021/06/07 07:06:24;;;;;;;2.22;1.50;;;;;;;15.38;97.47;97056.34;4974007;28;20089;-64
2021/06/07 07:08:51;;;;;;;3.45;1.92;;;;;;;15.42;98.17;97059.88;4970943;28;20042;-63
2021/06/07 07:11:17;;;;;;;3.25;1.42;;;;;;;15.50;98.32;97068.97;4974756;28;20038;-61
2021/06/07 07:13:42;;;;;;;3.55;1.42;;;;;;;15.67;96.97;97057.19;4980089;28;20533;-62
2021/06/07 07:16:08;;;;;;;2.67;1.55;;;;;;;16.05;97.01;97062.41;4976722;28;20050;-61
2021/06/07 07:18:33;;;;;;;4.60;1.50;;;;;;;16.52;93.58;97062.38;4959011;28;20046;-62
2021/06/07 07:20:59;;;;;;;2.63;1.10;;;;;;;17.30;89.00;97060.59;4980143;28;20046;-62
2021/06/07 07:23:24;;;;;;;1.67;0.85;;;;;;;18.39;87.45;97051.19;4972994;28;20046;-63
2021/06/07 07:25:50;;;;;;;2.28;1.00;;;;;;;20.03;81.44;97049.66;4979878;28;20522;-65
2021/06/07 07:28:16;;;;;;;1.20;0.70;;;;;;;21.93;71.95;97042.47;4973461;28;20054;-64
2021/06/07 07:30:44;;;;;;;2.58;0.90;;;;;;;23.85;68.28;97037.75;4963347;28;20514;-64
2021/06/07 07:33:10;;;;;;;2.67;0.60;;;;;;;24.33;62.30;97031.47;4978173;28;20038;-65
2021/06/07 07:35:36;;;;;;;1.40;0.90;;;;;;;24.47;60.77;97038.59;4963443;28;20100;-63
2021/06/07 07:38:03;;;;;;;2.67;1.10;;;;;;;23.94;63.20;97033.50;4979213;28;20038;-63
2021/06/07 07:40:30;;;;;;;3.70;1.15;;;;;;;23.68;61.99;97041.88;4978603;28;20451;-64
2021/06/07 07:42:57;;;;;;;1.30;0.73;;;;;;;23.87;59.43;97045.69;4981132;28;20133;-65
2021/06/07 07:45:26;;;;;;;3.13;0.88;;;;;;;22.49;63.20;97052.69;4972061;28;20054;-62
2021/06/07 07:48:04;;;;;;;6.68;1.52;;;;;;;21.73;67.42;97048.09;4977683;28;20097;-65
2021/06/07 07:50:30;;;;;;;2.72;1.20;;;;;;;21.71;67.68;97053.34;4979188;28;20491;-61
2021/06/07 07:52:56;;;;;;;2.63;1.45;;;;;;;21.43;69.85;97044.34;4966783;28;20054;-62
2021/06/07 07:55:25;;;;;;;1.83;1.05;;;;;;;21.18;68.49;97053.22;4975179;28;20157;-65
2021/06/07 07:57:51;;;;;;;2.75;1.20;;;;;;;22.08;67.45;97052.09;4984801;28;20039;-65
2021/06/07 08:00:21;;;;;;;1.75;1.30;;;;;;;21.87;68.03;97042.22;4960277;28;20563;-65
2021/06/07 08:02:47;;;;;;;3.33;1.35;;;;;;;21.87;67.95;97041.44;4980971;28;20046;-62
2021/06/07 08:05:13;;;;;;;1.90;1.30;;;;;;;21.36;69.65;97047.28;4978727;28;20126;-64
2021/06/07 08:07:39;;;;;;;4.47;1.67;;;;;;;21.58;69.31;97047.66;4988229;28;20046;-63
2021/06/07 08:10:06;;;;;;;6.10;1.58;;;;;;;22.14;66.68;97041.19;4962050;28;20878;-63
2021/06/07 08:12:32;;;;;;;3.15;1.73;;;;;;;21.48;70.14;97043.88;4983045;28;20053;-63
2021/06/07 08:14:57;;;;;;;4.65;2.03;;;;;;;21.73;70.02;97034.97;4981839;28;20050;-63
2021/06/07 08:17:23;;;;;;;2.35;1.50;;;;;;;21.28;70.54;97045.84;4979971;28;20049;-62
2021/06/07 08:19:49;;;;;;;8.75;2.15;;;;;;;21.17;71.01;97035.72;4981739;28;20038;-63
2021/06/07 08:22:14;;;;;;;2.47;1.38;;;;;;;20.94;68.63;97041.34;4979495;28;20488;-62
2021/06/07 08:24:40;;;;;;;5.95;1.63;;;;;;;20.97;70.64;97037.72;4982291;28;20053;-65
2021/06/07 08:27:06;;;;;;;2.95;1.23;;;;;;;21.20;69.25;97040.44;4976584;28;20131;-64
2021/06/07 08:29:32;;;;;;;1.65;1.10;;;;;;;21.10;70.36;97041.44;4982947;28;20057;-63
2021/06/07 08:31:59;;;;;;;2.55;1.10;;;;;;;21.11;70.07;97034.66;4977475;28;20133;-64
2021/06/07 08:34:25;;;;;;;2.15;1.17;;;;;;;21.08;70.17;97037.50;4966187;28;20326;-63
2021/06/07 08:36:51;;;;;;;2.10;1.50;;;;;;;20.44;73.42;97037.47;4967612;28;20042;-62
2021/06/07 08:39:17;;;;;;;1.98;1.40;;;;;;;19.84;75.88;97045.56;4980924;28;20077;-62
2021/06/07 08:41:43;;;;;;;3.17;1.85;;;;;;;20.90;71.25;97038.63;4986554;28;20476;-63
2021/06/07 08:44:08;;;;;;;2.40;1.50;;;;;;;21.33;69.95;97046.13;4982416;28;20403;-63
2021/06/07 08:46:34;;;;;;;4.70;1.70;;;;;;;21.81;68.02;97045.97;4984020;28;20039;-62
2021/06/07 08:48:59;;;;;;;3.42;2.15;;;;;;;21.94;67.18;97047.63;4983647;28;20137;-63
2021/06/07 08:51:25;;;;;;;5.40;2.20;;;;;;;21.78;68.64;97042.03;4978493;28;20042;-63
2021/06/07 08:53:51;;;;;;;3.22;2.30;;;;;;;21.24;68.35;97051.50;4979486;28;20399;-65
2021/06/07 08:56:17;;;;;;;6.18;2.35;;;;;;;20.98;69.86;97056.00;4977822;28;20050;-63
2021/06/07 08:58:43;;;;;;;7.25;2.00;;;;;;;20.76;68.38;97055.63;4982703;28;20039;-64
2021/06/07 09:01:09;;;;;;;2.78;1.73;;;;;;;20.08;70.01;97059.50;4976373;28;20049;-62
2021/06/07 09:03:36;;;;;;;3.00;1.90;;;;;;;19.99;71.37;97062.84;4982471;28;20042;-64
2021/06/07 09:06:04;;;;;;;3.53;2.40;;;;;;;19.73;71.86;97056.84;4982903;28;20043;-64
2021/06/07 09:08:37;;;;;;;4.07;2.85;;;;;;;19.42;72.82;97061.63;4973871;28;20112;-64
2021/06/07 09:11:11;;;;;;;4.70;3.47;;;;;;;19.29;74.21;97066.94;4980772;28;20053;-63
2021/06/07 09:13:37;;;;;;;4.90;3.70;;;;;;;19.32;74.27;97073.63;4980339;28;20046;-64
2021/06/07 09:16:04;;;;;;;4.00;2.92;;;;;;;19.41;73.93;97066.41;4979353;28;20042;-63
2021/06/07 09:18:37;;;;;;;5.68;3.15;;;;;;;19.51;74.51;97066.66;4981703;28;20047;-63
2021/06/07 09:21:12;;;;;;;5.20;3.33;;;;;;;19.65;74.82;97061.69;4980823;28;20050;-63
2021/06/07 09:23:56;;;;;;;4.50;2.95;;;;;;;19.52;73.02;97059.88;4981376;28;20082;-63
2021/06/07 09:26:24;;;;;;;6.57;3.10;;;;;;;19.93;71.71;97061.72;4978069;28;20455;-63
2021/06/07 09:28:51;;;;;;;5.93;3.22;;;;;;;19.84;72.46;97060.28;4981396;28;20188;-63
2021/06/07 09:31:16;;;;;;;4.63;3.40;;;;;;;20.01;71.61;97058.44;4959348;28;20100;-63
2021/06/07 09:33:47;;;;;;;5.85;3.95;;;;;;;20.05;71.68;97061.16;4958817;28;20038;-62
2021/06/07 09:36:20;;;;;;;6.78;4.40;;;;;;;20.53;70.84;97059.97;4976202;28;20042;-63
2021/06/07 09:39:15;;;;;;;6.13;4.32;;;;;;;20.67;70.35;97058.97;4980928;28;20046;-62
2021/06/07 09:41:50;;;;;;;4.53;2.95;;;;;;;20.86;69.15;97057.41;4983238;28;20042;-63
2021/06/07 09:44:31;;;;;;;4.35;3.42;;;;;;;20.73;68.39;97059.25;4974371;28;20053;-63
2021/06/07 09:47:22;;;;;;;4.75;3.80;;;;;;;20.80;68.40;97061.91;4974928;28;20096;-63
2021/06/07 09:49:59;;;;;;;4.13;3.10;;;;;;;20.74;67.95;97056.06;4980733;28;20054;-62
2021/06/07 09:52:24;;;;;;;3.22;2.40;;;;;;;19.93;70.73;97058.94;4972995;28;20042;-63
2021/06/07 09:55:22;;;;;;;4.55;2.90;;;;;;;20.51;69.95;97064.38;4977651;28;20054;-62
2021/06/07 09:57:49;;;;;;;5.40;2.83;;;;;;;20.99;67.72;97063.13;4954552;28;20054;-63
2021/06/07 10:00:34;;;;;;;3.45;2.20;;;;;;;21.07;67.44;97067.38;4973493;28;20050;-62
2021/06/07 10:03:24;;;;;;;3.75;2.08;;;;;;;21.39;67.01;97063.13;4976735;28;20045;-64
2021/06/07 10:06:01;;;;;;;4.93;2.20;;;;;;;22.01;65.31;97057.06;4972285;28;20084;-63
2021/06/07 10:08:47;;;;;;;3.42;2.10;;;;;;;22.25;63.69;97061.22;4973415;28;20138;-63
2021/06/07 10:11:17;;;;;;;4.63;2.13;;;;;;;23.25;61.55;97059.91;4974084;28;20047;-62
2021/06/07 10:13:42;;;;;;;2.70;1.88;;;;;;;23.41;58.59;97047.88;4979682;28;20064;-62
2021/06/07 10:16:09;;;;;;;2.40;1.58;;;;;;;23.45;58.46;97048.53;4958869;28;20031;-63
2021/06/07 10:18:35;;;;;;;6.93;1.60;;;;;;;23.12;57.98;97051.47;4980798;28;20038;-63
2021/06/07 10:21:00;;;;;;;1.63;1.02;;;;;;;23.22;59.14;97041.22;4981303;28;20053;-61
2021/06/07 10:23:29;;;;;;;1.77;1.15;;;;;;;23.66;57.72;97044.34;4976272;28;20694;-62
2021/06/07 10:25:58;;;;;;;6.30;1.23;;;;;;;23.29;59.51;97044.59;4982111;28;20464;-63
2021/06/07 10:28:35;;;;;;;1.92;1.10;;;;;;;22.75;61.56;97047.28;4976507;28;20081;-62
2021/06/07 10:31:08;;;;;;;1.50;0.88;;;;;;;22.29;63.12;97048.03;4980382;28;20034;-63
2021/06/07 10:33:36;;;;;;;1.90;1.17;;;;;;;23.08;60.93;97045.19;4962213;28;20134;-61
2021/06/07 10:36:27;;;;;;;3.40;1.77;;;;;;;23.32;59.16;97040.13;4979952;28;20566;-62
2021/06/07 10:39:14;;;;;;;4.20;2.53;;;;;;;22.61;61.75;97035.25;4981624;28;20078;-63
2021/06/07 10:41:45;;;;;;;2.72;1.98;;;;;;;22.40;62.49;97044.97;4981486;28;20049;-63
2021/06/07 10:44:10;;;;;;;3.50;1.67;;;;;;;23.07;61.54;97038.81;4976832;28;20038;-63
2021/06/07 10:46:38;;;;;;;3.97;2.17;;;;;;;23.82;59.17;97023.88;4981849;28;20484;-64
2021/06/07 10:49:34;;;;;;;8.25;4.88;;;;;;;24.36;57.34;97030.53;4973839;28;20038;-61
2021/06/07 10:52:12;;;;;;;3.42;2.25;;;;;;;23.95;57.42;97035.88;4981189;28;20097;-63
2021/06/07 10:54:39;;;;;;;2.97;1.90;;;;;;;23.71;59.74;97032.56;4980655;28;20177;-64
2021/06/07 10:57:26;;;;;;;2.42;1.70;;;;;;;23.23;60.49;97037.22;4975974;28;20050;-62
2021/06/07 11:00:12;;;;;;;3.80;2.35;;;;;;;23.24;61.98;97031.16;4985202;28;20034;-64
2021/06/07 11:02:43;;;;;;;3.58;2.33;;;;;;;23.45;59.64;97031.78;4952539;28;20046;-64
2021/06/07 11:05:25;;;;;;;3.25;2.42;;;;;;;22.98;61.26;97033.06;4975537;28;20133;-64
2021/06/07 11:08:02;;;;;;;3.42;2.28;;;;;;;22.91;61.98;97027.69;4979106;28;20100;-63
2021/06/07 11:10:28;;;;;;;4.65;2.25;;;;;;;22.55;62.75;97022.28;4977030;28;20101;-63
2021/06/07 11:13:06;;;;;;;3.25;2.20;;;;;;;23.03;61.79;97026.16;4980657;28;20134;-63
2021/06/07 11:15:51;;;;;;;3.13;2.33;;;;;;;22.91;62.21;97024.88;4980611;28;20054;-63
2021/06/07 11:18:22;;;;;;;4.47;2.95;;;;;;;23.16;61.41;97023.44;4975252;28;20110;-63
2021/06/07 11:20:51;;;;;;;2.70;2.10;;;;;;;23.15;61.24;97017.06;4981975;28;20137;-62
2021/06/07 11:23:18;;;;;;;3.80;2.10;;;;;;;23.01;62.19;97012.66;4975508;28;20114;-63
2021/06/07 11:25:52;;;;;;;3.38;1.95;;;;;;;22.89;62.15;97019.75;4962206;28;20562;-63
2021/06/07 11:28:45;;;;;;;2.13;1.38;;;;;;;22.86;61.94;97015.03;4975521;28;20121;-63